Time;durP1;ratioP1;P1;durP2;ratioP2;P2;SDS_P1;SDS_P2;PMS_P1;PMS_P2;Temp;Humidity;BMP_temperature;BMP_pressure;BME280_temperature;BME280_humidity;BME280_pressure;Samples;Min_cycle;Max_cycle;Signal;HPM_P1;HPM_P2
2023/05/31 00:00:07;;;;;;;;;19.40;19.40;;;;;16.05;67.98;99399.97;5087533;28;8855;-79
2023/05/31 00:02:57;;;;;;;;;18.60;18.60;;;;;16.43;66.57;99387.53;5087256;28;8845;-79
2023/05/31 00:05:26;;;;;;;;;19.60;18.40;;;;;16.70;65.62;99395.13;5087736;28;8851;-79
2023/05/31 00:07:55;;;;;;;;;21.80;21.00;;;;;16.06;67.62;99396.34;5052730;28;9062;-80
2023/05/31 00:10:24;;;;;;;;;24.00;23.80;;;;;15.51;70.49;99392.59;5087126;28;9033;-80
2023/05/31 00:12:53;;;;;;;;;23.80;23.40;;;;;15.34;71.57;99395.09;5086761;28;8866;-79
2023/05/31 00:15:22;;;;;;;;;21.00;21.00;;;;;15.60;70.26;99389.59;5068418;28;8869;-79
2023/05/31 00:17:51;;;;;;;;;22.60;22.20;;;;;15.79;69.54;99386.97;5087206;28;8844;-79
2023/05/31 00:20:22;;;;;;;;;23.20;23.20;;;;;15.73;69.82;99396.97;5087225;28;8851;-80
2023/05/31 00:22:51;;;;;;;;;21.80;20.00;;;;;16.19;67.90;99393.09;5087012;28;8871;-80
2023/05/31 00:25:19;;;;;;;;;25.80;23.60;;;;;16.42;67.20;99399.09;5086367;28;8859;-80
2023/05/31 00:27:48;;;;;;;;;20.80;20.00;;;;;16.61;66.36;99391.16;5086440;28;8920;-79
2023/05/31 00:30:17;;;;;;;;;23.00;21.20;;;;;16.65;65.95;99405.13;5067930;28;8849;-79
2023/05/31 00:32:46;;;;;;;;;21.60;21.60;;;;;16.18;67.66;99403.75;5087050;28;8872;-79
2023/05/31 00:35:15;;;;;;;;;25.00;24.40;;;;;16.14;68.12;99404.84;5069965;28;8844;-80
2023/05/31 00:37:46;;;;;;;;;21.60;20.00;;;;;16.26;67.64;99403.41;5095452;28;8890;-79
2023/05/31 00:40:14;;;;;;;;;20.40;18.80;;;;;16.28;67.63;99406.84;5020412;28;8918;-79
2023/05/31 00:42:43;;;;;;;;;20.40;19.00;;;;;16.62;66.20;99400.81;5086351;28;8882;-79
2023/05/31 00:45:13;;;;;;;;;22.80;21.20;;;;;16.23;67.64;99407.06;5068579;28;8859;-79
2023/05/31 00:47:43;;;;;;;;;20.60;19.20;;;;;16.39;66.85;99401.88;5083777;28;8922;-78
2023/05/31 00:50:12;;;;;;;;;21.00;20.00;;;;;16.46;66.69;99397.19;5086662;28;8865;-80
2023/05/31 00:52:41;;;;;;;;;20.00;20.00;;;;;15.66;69.69;99399.03;5111715;28;8832;-78
2023/05/31 00:55:11;;;;;;;;;20.40;18.40;;;;;15.52;70.54;99399.59;5055455;28;9067;-78
2023/05/31 00:57:41;;;;;;;;;22.60;20.80;;;;;15.18;72.37;99392.25;5089901;28;9554;-80
2023/05/31 01:00:12;;;;;;;;;22.40;20.20;;;;;15.29;71.76;99387.38;5043888;28;8865;-81
2023/05/31 01:02:43;;;;;;;;;20.40;20.00;;;;;15.52;70.23;99393.44;5045316;28;8844;-82
2023/05/31 01:05:12;;;;;;;;;17.60;17.60;;;;;15.72;69.52;99387.28;5028361;28;8961;-79
2023/05/31 01:07:41;;;;;;;;;23.00;21.20;;;;;15.69;69.72;99400.69;5045151;28;8836;-78
2023/05/31 01:10:13;;;;;;;;;17.20;16.60;;;;;16.22;67.93;99392.06;5027632;28;8945;-80
2023/05/31 01:12:53;;;;;;;;;21.20;20.20;;;;;16.57;66.58;99398.41;5028465;28;8846;-79
2023/05/31 01:15:25;;;;;;;;;17.20;17.00;;;;;16.48;66.48;99405.94;5044597;28;8856;-81
2023/05/31 01:18:03;;;;;;;;;17.80;17.40;;;;;16.77;65.40;99410.69;5048687;28;8886;-80
2023/05/31 01:20:36;;;;;;;;;19.00;17.40;;;;;17.02;64.44;99411.28;5048759;28;8840;-80
2023/05/31 01:23:21;;;;;;;;;17.40;17.00;;;;;17.10;64.20;99417.09;5031668;28;8862;-80
2023/05/31 01:26:12;;;;;;;;;18.20;17.80;;;;;16.74;65.29;99413.50;4995503;28;9005;-79
2023/05/31 01:28:45;;;;;;;;;19.00;16.60;;;;;16.96;64.49;99412.44;4933802;28;8953;-80
2023/05/31 01:31:19;;;;;;;;;18.20;15.20;;;;;16.83;64.66;99406.88;5055415;28;8877;-78
2023/05/31 01:33:49;;;;;;;;;19.40;19.40;;;;;16.60;65.25;99414.16;5090274;28;8841;-79
2023/05/31 01:36:18;;;;;;;;;17.60;15.40;;;;;16.74;65.05;99418.81;5091635;28;8976;-79
2023/05/31 01:38:47;;;;;;;;;17.00;17.00;;;;;16.74;65.44;99410.00;5091892;28;8834;-79
2023/05/31 01:41:18;;;;;;;;;17.20;17.20;;;;;16.99;64.47;99418.47;5055243;28;8856;-81
2023/05/31 01:43:50;;;;;;;;;17.20;15.60;;;;;16.73;65.08;99422.38;5089969;28;8855;-80
2023/05/31 01:46:19;;;;;;;;;17.60;16.20;;;;;16.85;64.64;99425.38;5088284;28;8967;-80
2023/05/31 01:48:49;;;;;;;;;15.80;15.40;;;;;16.99;64.00;99430.88;5089771;28;8898;-79
2023/05/31 01:51:19;;;;;;;;;15.20;15.00;;;;;17.09;63.43;99428.63;5089841;28;8872;-79
2023/05/31 01:53:50;;;;;;;;;14.80;14.60;;;;;17.19;63.22;99429.88;5089343;28;8866;-80
2023/05/31 01:56:21;;;;;;;;;18.00;15.60;;;;;17.28;62.48;99425.94;5089462;28;8871;-79
2023/05/31 01:58:53;;;;;;;;;16.00;15.40;;;;;17.29;62.41;99425.00;5090850;28;8848;-80
2023/05/31 02:01:24;;;;;;;;;16.00;14.40;;;;;17.41;62.09;99427.03;5086243;28;9637;-79
2023/05/31 02:03:53;;;;;;;;;13.60;13.00;;;;;16.83;63.87;99419.28;5082942;28;8872;-80
2023/05/31 02:06:26;;;;;;;;;11.40;11.40;;;;;17.17;62.50;99421.13;5068988;28;8883;-80
2023/05/31 02:08:56;;;;;;;;;14.40;13.20;;;;;17.28;61.89;99423.28;5085486;28;8957;-80
2023/05/31 02:11:28;;;;;;;;;15.00;15.00;;;;;17.23;62.01;99428.81;5068977;28;8847;-80
2023/05/31 02:13:59;;;;;;;;;13.00;12.60;;;;;17.39;61.57;99427.09;5052334;28;8840;-80
2023/05/31 02:16:28;;;;;;;;;14.80;14.00;;;;;17.39;61.43;99429.75;5076754;28;8845;-80
2023/05/31 02:18:58;;;;;;;;;11.80;10.60;;;;;17.44;61.32;99426.00;5088657;28;8833;-81
2023/05/31 02:21:27;;;;;;;;;15.00;14.40;;;;;17.51;60.85;99430.94;5088643;28;8866;-79
2023/05/31 02:23:56;;;;;;;;;12.60;11.60;;;;;17.44;60.76;99429.53;5072313;28;8852;-82
2023/05/31 02:26:25;;;;;;;;;13.00;13.00;;;;;17.45;60.84;99431.25;5076979;28;8878;-80
2023/05/31 02:28:54;;;;;;;;;8.60;8.40;;;;;17.18;61.39;99429.03;5095394;28;8843;-79
2023/05/31 02:31:24;;;;;;;;;14.40;12.60;;;;;17.40;60.94;99430.63;5068573;28;8949;-80
2023/05/31 02:33:54;;;;;;;;;12.00;12.00;;;;;17.45;60.65;99431.25;5068631;28;8855;-79
2023/05/31 02:36:25;;;;;;;;;14.40;13.20;;;;;17.48;60.50;99428.44;5068732;28;8851;-80
2023/05/31 02:38:54;;;;;;;;;11.00;10.40;;;;;17.50;60.33;99426.56;5052289;28;9038;-79
2023/05/31 02:41:22;;;;;;;;;14.80;13.80;;;;;17.54;60.24;99425.47;5085655;28;9653;-80
2023/05/31 02:43:51;;;;;;;;;13.00;13.00;;;;;17.63;60.04;99429.44;5070268;28;8858;-82
2023/05/31 02:46:20;;;;;;;;;11.60;11.40;;;;;17.69;59.86;99426.47;5078755;28;8982;-80
2023/05/31 02:48:50;;;;;;;;;13.20;13.20;;;;;17.70;59.84;99424.66;5088952;28;9635;-80
2023/05/31 02:51:19;;;;;;;;;15.60;14.00;;;;;17.75;59.57;99431.44;5088057;28;9559;-80
2023/05/31 02:54:07;;;;;;;;;13.60;13.60;;;;;17.65;59.54;99424.06;5089424;28;8859;-80
2023/05/31 02:56:37;;;;;;;;;13.40;13.20;;;;;17.74;59.47;99428.84;5071254;28;8844;-79
2023/05/31 02:59:18;;;;;;;;;15.60;15.60;;;;;17.56;59.80;99426.22;5071202;28;8863;-80
2023/05/31 03:01:57;;;;;;;;;14.00;12.80;;;;;17.62;59.60;99422.41;5088041;28;9020;-79
2023/05/31 03:04:28;;;;;;;;;12.00;11.80;;;;;17.67;59.70;99417.72;5089465;28;8851;-80
2023/05/31 03:06:59;;;;;;;;;14.60;13.00;;;;;17.65;59.64;99424.91;5087969;28;8907;-81
2023/05/31 03:09:30;;;;;;;;;15.40;15.40;;;;;17.71;59.35;99421.06;5071123;28;8848;-80
2023/05/31 03:12:02;;;;;;;;;13.60;12.80;;;;;17.70;59.60;99422.88;5087610;28;9617;-79
2023/05/31 03:14:34;;;;;;;;;13.20;13.20;;;;;17.78;59.28;99423.31;5087848;28;8855;-80
2023/05/31 03:17:03;;;;;;;;;14.60;14.00;;;;;17.84;59.11;99424.78;5086826;28;8909;-78
2023/05/31 03:19:34;;;;;;;;;20.80;19.40;;;;;17.89;58.96;99428.06;5104510;28;9623;-79
2023/05/31 03:22:05;;;;;;;;;48.75;39.50;;;;;17.94;58.67;99435.78;5068647;28;8943;-80
2023/05/31 03:24:35;;;;;;;;;22.60;22.40;;;;;17.74;59.35;99435.06;5067930;28;8985;-79
2023/05/31 03:27:06;;;;;;;;;17.80;16.80;;;;;17.87;58.79;99435.28;5067297;28;8866;-80
2023/05/31 03:29:38;;;;;;;;;16.40;15.80;;;;;18.01;58.50;99431.88;5083812;28;8955;-79
2023/05/31 03:32:07;;;;;;;;;16.40;13.80;;;;;17.95;58.74;99429.56;5080712;28;8931;-80
2023/05/31 03:34:37;;;;;;;;;14.80;13.80;;;;;18.00;58.61;99430.13;5070007;28;8868;-80
2023/05/31 03:37:06;;;;;;;;;14.00;13.40;;;;;18.06;58.56;99429.88;5047301;28;8864;-80
2023/05/31 03:39:46;;;;;;;;;15.40;14.00;;;;;18.10;58.25;99434.06;5046566;28;8864;-79
2023/05/31 03:42:31;;;;;;;;;12.80;12.20;;;;;18.16;58.20;99436.41;5063796;28;8861;-78
2023/05/31 03:45:00;;;;;;;;;14.60;14.40;;;;;18.13;58.34;99438.34;5048405;28;8837;-79
2023/05/31 03:47:30;;;;;;;;;15.60;14.40;;;;;18.16;57.99;99432.88;5050408;28;8895;-81
2023/05/31 03:50:00;;;;;;;;;16.80;16.80;;;;;17.86;58.56;99436.22;5027053;28;8852;-80
2023/05/31 03:52:29;;;;;;;;;15.00;14.00;;;;;17.95;58.51;99435.72;5027013;28;8994;-79
2023/05/31 03:54:58;;;;;;;;;47.75;40.50;;;;;18.01;58.51;99439.00;5028385;28;8828;-80
2023/05/31 03:57:27;;;;;;;;;26.00;24.40;;;;;17.50;59.88;99447.81;5031829;28;8863;-80
2023/05/31 03:59:56;;;;;;;;;17.80;17.80;;;;;17.74;59.21;99440.38;4991938;28;8879;-80
2023/05/31 04:02:25;;;;;;;;;16.60;15.40;;;;;17.87;58.96;99443.25;5047411;28;9600;-80
2023/05/31 04:04:54;;;;;;;;;14.20;14.20;;;;;18.00;58.81;99446.09;5047168;28;8978;-80
2023/05/31 04:07:27;;;;;;;;;28.60;26.60;;;;;18.12;58.48;99444.63;5047181;28;8834;-79
2023/05/31 04:09:56;;;;;;;;;41.50;36.50;;;;;18.21;58.16;99449.44;5064060;28;8841;-81
2023/05/31 04:12:25;;;;;;;;;26.40;25.60;;;;;18.30;58.03;99448.94;5077078;28;9598;-79
2023/05/31 04:14:54;;;;;;;;;17.40;17.40;;;;;18.28;57.44;99452.63;5046980;28;8860;-81
2023/05/31 04:17:23;;;;;;;;;17.00;15.80;;;;;18.23;57.90;99449.34;5048297;28;9618;-80
2023/05/31 04:19:52;;;;;;;;;15.40;14.20;;;;;18.38;57.83;99459.16;5050664;28;8870;-80
2023/05/31 04:22:22;;;;;;;;;11.40;10.80;;;;;18.52;57.29;99458.41;5030648;28;8864;-81
2023/05/31 04:24:53;;;;;;;;;14.00;14.00;;;;;18.63;57.09;99456.00;5047002;28;8868;-80
2023/05/31 04:27:32;;;;;;;;;13.60;13.20;;;;;18.77;56.64;99462.38;5047629;28;8856;-78
2023/05/31 04:30:02;;;;;;;;;14.20;12.60;;;;;18.87;56.36;99455.59;5030821;28;8841;-80
2023/05/31 04:32:34;;;;;;;;;13.60;12.40;;;;;18.97;56.22;99459.47;5017223;28;8853;-79
2023/05/31 04:35:04;;;;;;;;;24.00;21.40;;;;;18.48;57.22;99471.03;5054540;28;8883;-80
2023/05/31 04:37:36;;;;;;;;;27.00;25.80;;;;;18.54;56.70;99473.34;5087104;28;8859;-81
2023/05/31 04:40:10;;;;;;;;;30.60;27.80;;;;;18.40;57.54;99473.22;5060816;28;8878;-81
2023/05/31 04:42:40;;;;;;;;;21.80;20.80;;;;;18.58;57.03;99468.72;5083320;28;8881;-80
2023/05/31 04:45:20;;;;;;;;;24.60;23.00;;;;;18.27;57.72;99474.84;5084408;28;9718;-83
2023/05/31 04:47:52;;;;;;;;;16.40;14.80;;;;;18.00;58.41;99487.81;5089724;28;8945;-84
2023/05/31 04:50:22;;;;;;;;;13.40;13.40;;;;;17.92;58.74;99486.41;5072979;28;8847;-83
2023/05/31 04:52:51;;;;;;;;;12.40;9.80;;;;;18.16;58.47;99486.09;5037100;28;8866;-82
2023/05/31 04:55:21;;;;;;;;;12.00;12.00;;;;;18.12;57.92;99484.53;5063612;28;8844;-82
2023/05/31 04:57:52;;;;;;;;;11.60;11.40;;;;;17.75;59.07;99483.75;5075223;28;8859;-84
2023/05/31 05:00:22;;;;;;;;;14.40;13.40;;;;;17.77;59.35;99484.53;5092226;28;8840;-84
2023/05/31 05:03:11;;;;;;;;;10.60;9.00;;;;;17.19;61.44;99488.31;5096605;28;8848;-81
2023/05/31 05:05:42;;;;;;;;;14.00;12.40;;;;;17.35;60.68;99488.47;5092793;28;8864;-82
2023/05/31 05:08:11;;;;;;;;;14.80;14.80;;;;;17.64;60.11;99492.28;5086374;28;9464;-77
2023/05/31 05:10:43;;;;;;;;;11.00;10.60;;;;;17.62;60.13;99503.94;5073151;28;8851;-78
2023/05/31 05:13:13;;;;;;;;;15.40;15.00;;;;;17.83;59.53;99502.84;5089406;28;8925;-79
2023/05/31 05:15:44;;;;;;;;;13.20;13.20;;;;;18.11;58.45;99509.41;5087565;28;8836;-78
2023/05/31 05:18:13;;;;;;;;;13.40;12.40;;;;;18.38;57.99;99498.22;5078534;28;8982;-79
2023/05/31 05:20:42;;;;;;;;;16.80;14.80;;;;;18.16;58.10;99510.88;5090492;28;8883;-80
2023/05/31 05:23:11;;;;;;;;;15.20;14.00;;;;;18.19;57.85;99503.69;5071796;28;8867;-80
2023/05/31 05:25:40;;;;;;;;;15.40;15.40;;;;;18.21;57.95;99507.97;5068649;28;8885;-79
2023/05/31 05:28:12;;;;;;;;;18.20;18.20;;;;;17.52;60.28;99509.72;5080976;28;8918;-80
2023/05/31 05:30:41;;;;;;;;;19.60;17.80;;;;;18.00;58.77;99514.41;5059960;28;8860;-79
2023/05/31 05:33:10;;;;;;;;;21.40;20.80;;;;;17.13;62.09;99512.53;5028135;28;8861;-78
2023/05/31 05:35:39;;;;;;;;;19.40;19.40;;;;;17.74;60.07;99519.25;5087040;28;8922;-78
2023/05/31 05:38:09;;;;;;;;;21.20;18.80;;;;;17.30;61.33;99525.00;5070617;28;8870;-78
2023/05/31 05:40:38;;;;;;;;;27.80;27.20;;;;;17.49;60.78;99520.50;5037498;28;8960;-81
2023/05/31 05:43:07;;;;;;;;;17.20;16.40;;;;;17.43;60.76;99527.94;5054572;28;8842;-79
2023/05/31 05:45:49;;;;;;;;;14.20;14.20;;;;;17.70;60.25;99528.34;5054728;28;8884;-80
2023/05/31 05:48:18;;;;;;;;;21.60;21.00;;;;;17.67;60.19;99531.16;5073654;28;8841;-81
2023/05/31 05:50:47;;;;;;;;;15.80;15.80;;;;;17.84;59.67;99527.66;5088037;28;8842;-79
2023/05/31 05:53:16;;;;;;;;;20.60;19.40;;;;;17.93;59.15;99535.13;5070890;28;8960;-80
2023/05/31 05:55:50;;;;;;;;;20.20;18.60;;;;;17.98;58.95;99527.78;5042185;28;8864;-78
2023/05/31 05:58:25;;;;;;;;;15.20;14.20;;;;;17.89;59.43;99525.59;5068460;28;8962;-79
2023/05/31 06:01:18;;;;;;;;;16.20;14.60;;;;;16.94;62.94;99536.44;5076341;28;8846;-80
2023/05/31 06:03:51;;;;;;;;;17.20;17.20;;;;;17.10;62.31;99533.94;5026465;28;8855;-79
2023/05/31 06:06:20;;;;;;;;;25.00;23.80;;;;;17.55;61.05;99540.59;5049178;28;8841;-79
2023/05/31 06:08:49;;;;;;;;;20.80;20.80;;;;;17.91;60.05;99537.00;5038692;28;8914;-79
2023/05/31 06:11:18;;;;;;;;;20.40;19.40;;;;;18.33;58.92;99543.72;5039702;28;8834;-81
2023/05/31 06:13:47;;;;;;;;;19.20;19.20;;;;;18.61;57.85;99550.22;4999255;28;8955;-78
2023/05/31 06:16:22;;;;;;;;;22.00;21.00;;;;;18.75;57.27;99551.19;5030554;28;8850;-82
2023/05/31 06:18:51;;;;;;;;;24.80;24.40;;;;;18.64;57.52;99542.06;5001879;28;8854;-81
2023/05/31 06:21:20;;;;;;;;;21.00;20.60;;;;;18.91;57.15;99545.03;5036197;28;8895;-77
2023/05/31 06:23:49;;;;;;;;;27.00;22.00;;;;;19.09;56.30;99551.16;5030904;28;8861;-77
2023/05/31 06:26:18;;;;;;;;;25.20;25.20;;;;;18.67;57.57;99550.75;5003563;28;8884;-80
2023/05/31 06:28:47;;;;;;;;;33.60;32.20;;;;;18.43;58.26;99550.25;5053799;28;8864;-77
2023/05/31 06:31:38;;;;;;;;;29.80;28.00;;;;;18.61;57.57;99551.09;5051916;28;8854;-78
2023/05/31 06:34:07;;;;;;;;;32.20;29.60;;;;;17.97;59.90;99553.50;5030285;28;8854;-77
2023/05/31 06:36:36;;;;;;;;;30.40;30.00;;;;;16.96;63.15;99558.47;4982064;28;8860;-78
2023/05/31 06:39:05;;;;;;;;;34.00;28.80;;;;;16.60;64.97;99560.13;5046471;28;8985;-81
2023/05/31 06:41:34;;;;;;;;;38.00;34.00;;;;;16.77;64.63;99553.16;5029288;28;9057;-78
2023/05/31 06:44:19;;;;;;;;;34.60;32.60;;;;;17.25;63.31;99548.25;5029382;28;8858;-77
2023/05/31 06:46:59;;;;;;;;;30.60;27.20;;;;;17.86;61.29;99547.88;5029644;28;9564;-77
2023/05/31 06:49:28;;;;;;;;;32.80;30.60;;;;;18.34;59.80;99554.25;5045388;28;8884;-81
2023/05/31 06:52:32;;;;;;;;;34.00;32.40;;;;;18.18;59.21;99560.50;5012804;28;8853;-78
2023/05/31 06:55:23;;;;;;;;;31.60;29.40;;;;;18.42;59.04;99559.22;5069871;28;8911;-80
2023/05/31 06:57:53;;;;;;;;;30.60;29.80;;;;;18.80;58.17;99550.09;5071241;28;8839;-79
2023/05/31 07:00:22;;;;;;;;;33.40;30.80;;;;;19.13;57.42;99556.19;5033673;28;8854;-77
2023/05/31 07:02:53;;;;;;;;;38.80;34.80;;;;;19.32;56.43;99560.50;5084385;28;8848;-80
2023/05/31 07:05:22;;;;;;;;;45.20;38.80;;;;;19.25;56.84;99557.34;5067860;28;8947;-79
2023/05/31 07:07:52;;;;;;;;;38.60;34.40;;;;;19.22;56.36;99569.97;5050718;28;8838;-78
2023/05/31 07:10:22;;;;;;;;;35.80;33.60;;;;;18.60;58.47;99564.47;5033317;28;8838;-81
2023/05/31 07:12:53;;;;;;;;;36.40;32.40;;;;;18.38;59.00;99573.59;5067870;28;8869;-80
2023/05/31 07:15:22;;;;;;;;;30.40;30.20;;;;;18.95;57.57;99567.91;5085026;28;8938;-77
2023/05/31 07:17:52;;;;;;;;;34.40;33.40;;;;;19.31;56.48;99564.97;5069630;28;8854;-78
2023/05/31 07:20:21;;;;;;;;;35.20;31.80;;;;;19.69;55.94;99569.06;5052193;28;8878;-77
2023/05/31 07:22:51;;;;;;;;;29.80;29.80;;;;;19.77;54.80;99569.47;5068980;28;8954;-77
2023/05/31 07:25:19;;;;;;;;;31.20;30.00;;;;;19.26;55.41;99572.38;5069667;28;8853;-78
2023/05/31 07:27:48;;;;;;;;;28.60;27.20;;;;;18.96;56.75;99572.28;5069096;28;8999;-78
2023/05/31 07:30:17;;;;;;;;;30.80;29.60;;;;;18.99;57.24;99568.56;5085795;28;8887;-78
2023/05/31 07:32:46;;;;;;;;;29.60;28.60;;;;;19.49;55.91;99571.03;5085875;28;8862;-76
2023/05/31 07:35:17;;;;;;;;;29.40;26.80;;;;;19.83;55.06;99574.44;5068262;28;8845;-81
2023/05/31 07:37:46;;;;;;;;;29.00;28.00;;;;;19.54;55.13;99564.59;5086156;28;8829;-76
2023/05/31 07:40:15;;;;;;;;;28.60;27.00;;;;;19.39;55.50;99569.88;5068618;28;8903;-78
2023/05/31 07:42:45;;;;;;;;;25.80;24.20;;;;;19.75;54.72;99570.53;5052857;28;8938;-77
2023/05/31 07:45:14;;;;;;;;;23.60;23.40;;;;;19.66;54.21;99575.44;5068722;28;8990;-78
2023/05/31 07:47:43;;;;;;;;;27.80;27.80;;;;;19.50;55.25;99567.44;5087949;28;8924;-80
2023/05/31 07:50:12;;;;;;;;;35.80;30.60;;;;;19.97;54.30;99570.97;5087084;28;8868;-78
2023/05/31 07:52:46;;;;;;;;;28.40;25.60;;;;;20.28;53.54;99567.31;5087007;28;8847;-81
2023/05/31 07:55:16;;;;;;;;;32.60;31.40;;;;;19.81;53.94;99578.16;5088888;28;8855;-76
2023/05/31 07:57:45;;;;;;;;;36.60;33.20;;;;;19.20;56.22;99582.53;5090525;28;8913;-78
2023/05/31 08:00:14;;;;;;;;;31.60;30.60;;;;;19.65;54.82;99570.19;5019935;28;8874;-79
2023/05/31 08:02:43;;;;;;;;;35.80;33.00;;;;;19.54;55.07;99570.81;5088056;28;8839;-77
2023/05/31 08:05:14;;;;;;;;;32.00;30.00;;;;;19.67;55.22;99582.50;5088113;28;8880;-78
2023/05/31 08:07:46;;;;;;;;;16.00;14.80;;;;;19.98;54.58;99572.66;5088193;28;8936;-76
2023/05/31 08:10:16;;;;;;;;;24.40;24.40;;;;;19.76;54.18;99577.56;5069481;28;8871;-78
2023/05/31 08:12:45;;;;;;;;;25.80;23.40;;;;;19.70;54.82;99576.09;5069818;28;10048;-77
2023/05/31 08:15:13;;;;;;;;;23.40;19.60;;;;;19.55;54.96;99575.19;5088016;28;8847;-79
2023/05/31 08:17:43;;;;;;;;;23.00;21.00;;;;;19.47;55.00;99577.41;5087826;28;8994;-78
2023/05/31 08:20:14;;;;;;;;;21.00;19.40;;;;;19.79;54.72;99572.91;5036408;28;8844;-77
2023/05/31 08:22:44;;;;;;;;;15.20;15.20;;;;;20.22;53.59;99573.00;5087117;28;8862;-77
2023/05/31 08:25:16;;;;;;;;;22.00;21.40;;;;;20.12;53.96;99579.00;5052443;28;8872;-79
2023/05/31 08:27:46;;;;;;;;;20.20;19.80;;;;;20.49;52.68;99581.16;5088113;28;8900;-77
2023/05/31 08:30:15;;;;;;;;;20.20;19.60;;;;;20.58;52.58;99573.56;5086663;28;9961;-78
2023/05/31 08:32:44;;;;;;;;;20.20;19.60;;;;;20.38;52.44;99580.97;5069868;28;8824;-79
2023/05/31 08:35:13;;;;;;;;;34.40;31.80;;;;;20.23;52.41;99582.75;5091374;28;8871;-77
2023/05/31 08:37:42;;;;;;;;;20.40;20.20;;;;;20.46;52.79;99577.81;5089046;28;8873;-78
2023/05/31 08:40:11;;;;;;;;;20.60;20.60;;;;;20.92;51.76;99569.63;5036111;28;8856;-79
2023/05/31 08:42:48;;;;;;;;;24.20;22.80;;;;;20.45;51.85;99570.78;5086404;28;8878;-78
2023/05/31 08:45:19;;;;;;;;;24.80;22.80;;;;;20.98;51.24;99579.06;5103180;28;8909;-78
2023/05/31 08:47:57;;;;;;;;;19.20;19.00;;;;;21.45;50.61;99575.97;5087525;28;8860;-78
2023/05/31 08:50:28;;;;;;;;;21.20;19.80;;;;;21.72;49.51;99583.16;5088003;28;8843;-78
2023/05/31 08:52:57;;;;;;;;;27.40;26.80;;;;;21.98;48.63;99581.41;5093545;28;8859;-78
2023/05/31 08:55:27;;;;;;;;;20.80;20.00;;;;;21.84;49.11;99581.47;5090753;28;9658;-77
2023/05/31 08:57:59;;;;;;;;;21.60;20.20;;;;;22.12;48.66;99584.94;5105864;28;8851;-81
2023/05/31 09:00:28;;;;;;;;;21.60;21.60;;;;;22.39;48.06;99579.53;5054785;28;8944;-77
2023/05/31 09:03:00;;;;;;;;;23.20;23.20;;;;;22.52;47.47;99580.38;5105223;28;8824;-78
2023/05/31 09:05:28;;;;;;;;;27.60;27.60;;;;;22.09;47.75;99586.03;5105088;28;8863;-79
2023/05/31 09:07:58;;;;;;;;;22.40;22.40;;;;;22.20;47.83;99587.94;5105425;28;8855;-78
2023/05/31 09:10:28;;;;;;;;;22.20;22.20;;;;;22.35;47.78;99581.59;5088295;28;8861;-78
2023/05/31 09:12:58;;;;;;;;;22.80;20.80;;;;;22.37;47.48;99584.13;5055940;28;8901;-79
2023/05/31 09:15:28;;;;;;;;;21.00;20.20;;;;;22.42;47.10;99577.50;5088299;28;8847;-80
2023/05/31 09:17:58;;;;;;;;;21.00;19.00;;;;;22.39;47.11;99583.09;5105398;28;8836;-77
2023/05/31 09:20:33;;;;;;;;;20.40;18.20;;;;;22.43;47.37;99589.09;5088296;28;8867;-79
2023/05/31 09:23:06;;;;;;;;;22.20;20.40;;;;;22.29;47.78;99590.03;5051715;28;8902;-80
2023/05/31 09:25:44;;;;;;;;;17.80;16.80;;;;;22.30;47.45;99580.19;5085492;28;9095;-77
2023/05/31 09:28:17;;;;;;;;;24.20;21.80;;;;;22.15;47.71;99585.59;5087670;28;8847;-76
2023/05/31 09:30:46;;;;;;;;;25.60;24.20;;;;;21.45;49.39;99578.66;5087411;28;8978;-76
2023/05/31 09:33:15;;;;;;;;;21.40;21.00;;;;;20.86;50.76;99578.00;5088500;28;8893;-80
2023/05/31 09:36:05;;;;;;;;;25.80;25.40;;;;;20.53;51.57;99589.00;5087115;28;9036;-82
2023/05/31 09:38:35;;;;;;;;;25.40;24.60;;;;;20.82;50.85;99579.13;5010307;28;8965;-76
2023/05/31 09:41:15;;;;;;;;;23.60;22.60;;;;;21.17;50.37;99576.91;5028502;28;8867;-77
2023/05/31 09:43:47;;;;;;;;;28.00;27.20;;;;;21.37;50.10;99578.31;5028977;28;8954;-79
2023/05/31 09:46:17;;;;;;;;;24.80;22.40;;;;;21.72;49.09;99583.16;5034496;28;8876;-77
2023/05/31 09:48:57;;;;;;;;;22.40;22.40;;;;;21.96;48.16;99579.81;4992633;28;8850;-80
2023/05/31 09:51:27;;;;;;;;;25.20;23.00;;;;;22.17;47.57;99577.47;4992330;28;8858;-78
2023/05/31 09:53:57;;;;;;;;;22.80;21.80;;;;;21.33;49.53;99582.13;4975859;28;8997;-79
2023/05/31 09:56:29;;;;;;;;;25.60;23.80;;;;;21.71;49.07;99581.47;4992129;28;8858;-80
2023/05/31 09:59:02;;;;;;;;;26.00;25.60;;;;;20.62;51.74;99583.94;5007930;28;8901;-77
2023/05/31 10:01:33;;;;;;;;;29.80;28.40;;;;;20.78;51.32;99575.78;5008069;28;8846;-79
2023/05/31 10:04:03;;;;;;;;;25.40;25.40;;;;;21.26;50.21;99575.47;4975538;28;8943;-78
2023/05/31 10:06:34;;;;;;;;;39.20;31.80;;;;;21.67;49.55;99576.41;4975790;28;8897;-76
2023/05/31 10:09:04;;;;;;;;;25.00;25.00;;;;;21.85;48.81;99575.16;5007508;28;8862;-78
2023/05/31 10:11:35;;;;;;;;;25.80;24.40;;;;;22.22;47.69;99578.88;5007596;28;8854;-79
2023/05/31 10:14:12;;;;;;;;;20.60;20.20;;;;;22.51;46.54;99578.69;4991375;28;8885;-77
2023/05/31 10:16:48;;;;;;;;;30.60;30.00;;;;;22.68;46.58;99572.13;5063741;28;8942;-78
2023/05/31 10:19:24;;;;;;;;;27.40;26.80;;;;;21.06;50.40;99579.44;5071931;28;8856;-77
2023/05/31 10:21:54;;;;;;;;;26.40;25.40;;;;;20.09;53.20;99577.38;5090130;28;9726;-79
2023/05/31 10:24:26;;;;;;;;;28.40;27.60;;;;;19.58;55.45;99576.84;5088271;28;8862;-78
2023/05/31 10:27:02;;;;;;;;;27.60;27.00;;;;;20.06;54.15;99573.06;5089366;28;8867;-77
2023/05/31 10:29:39;;;;;;;;;27.00;26.60;;;;;20.49;53.27;99566.94;5088435;28;8851;-78
2023/05/31 10:32:14;;;;;;;;;26.80;26.00;;;;;21.10;51.21;99561.38;5071168;28;8934;-77
2023/05/31 10:34:44;;;;;;;;;27.60;26.60;;;;;21.55;50.50;99559.31;5037507;28;8879;-78
2023/05/31 10:37:14;;;;;;;;;27.20;25.60;;;;;21.82;49.09;99553.97;5071402;28;8864;-78
2023/05/31 10:39:49;;;;;;;;;34.80;31.80;;;;;21.34;50.47;99558.94;5071372;28;9632;-77
2023/05/31 10:42:27;;;;;;;;;26.60;26.20;;;;;20.86;52.10;99562.00;5090104;28;8929;-77
2023/05/31 10:45:06;;;;;;;;;28.80;26.80;;;;;20.81;51.64;99561.41;5093149;28;9656;-78
2023/05/31 10:47:40;;;;;;;;;28.40;28.40;;;;;19.62;55.52;99565.03;5089304;28;8863;-80
2023/05/31 10:50:18;;;;;;;;;27.60;27.60;;;;;20.16;53.85;99554.72;5071798;28;8886;-80
2023/05/31 10:52:49;;;;;;;;;26.60;24.20;;;;;18.99;57.49;99557.91;5088057;28;8860;-79
2023/05/31 10:55:20;;;;;;;;;27.00;25.80;;;;;18.82;58.26;99546.41;5087877;28;8852;-78
2023/05/31 10:57:53;;;;;;;;;24.80;24.40;;;;;19.73;56.43;99549.28;5036460;28;8878;-77
2023/05/31 11:00:25;;;;;;;;;29.00;27.80;;;;;20.14;53.88;99543.28;5087496;28;9607;-77
2023/05/31 11:02:58;;;;;;;;;22.60;22.20;;;;;20.69;52.41;99539.00;5089228;28;8924;-77
2023/05/31 11:05:27;;;;;;;;;26.00;24.00;;;;;20.56;52.54;99544.25;5087616;28;8843;-77
2023/05/31 11:07:58;;;;;;;;;28.00;27.20;;;;;20.41;53.52;99539.88;5086801;28;8878;-78
2023/05/31 11:10:29;;;;;;;;;27.60;25.60;;;;;20.05;54.40;99541.16;5053636;28;8962;-82
2023/05/31 11:13:03;;;;;;;;;23.00;22.00;;;;;19.78;54.75;99539.16;5087645;28;8844;-77
2023/05/31 11:15:44;;;;;;;;;25.20;24.20;;;;;20.97;52.00;99530.09;5089280;28;8847;-77
2023/05/31 11:18:16;;;;;;;;;26.80;25.40;;;;;21.41;49.70;99521.00;5087554;28;8840;-79
2023/05/31 11:20:45;;;;;;;;;28.60;25.80;;;;;20.54;51.29;99519.47;5088691;28;8844;-78
2023/05/31 11:23:30;;;;;;;;;29.40;29.20;;;;;20.50;52.99;99509.94;5070746;28;8898;-77
2023/05/31 11:26:16;;;;;;;;;27.40;27.40;;;;;20.51;53.25;99519.66;5090669;28;8847;-79
2023/05/31 11:29:06;;;;;;;;;26.80;25.60;;;;;20.35;53.19;99519.75;5090066;28;8879;-82
2023/05/31 11:31:59;;;;;;;;;31.20;29.80;;;;;20.28;54.13;99516.59;5009538;28;8851;-78
2023/05/31 11:34:30;;;;;;;;;25.00;25.00;;;;;21.22;52.06;99509.81;4994566;28;8877;-81
2023/05/31 11:37:01;;;;;;;;;23.80;20.00;;;;;21.57;49.30;99501.22;5032445;28;8890;-78
2023/05/31 11:39:30;;;;;;;;;22.60;22.20;;;;;21.08;49.23;99508.03;5009820;28;8895;-79
2023/05/31 11:42:00;;;;;;;;;25.40;24.40;;;;;21.56;48.36;99508.41;5009356;28;8863;-76
2023/05/31 11:44:31;;;;;;;;;33.20;30.20;;;;;22.08;46.81;99513.84;5025304;28;8856;-81